SBOSBO BIA / LFKB
Speedbird OnlineSpeedbird Online BIA / LFKB

Bastia-Poretta Airport
08:59 17°C

Location Bastia, France
Latitude: 42.55270004272461
Longitude: 9.48373031616211
Web Wikipedia
Altitude 8 Meter / 26 Feet
Distance 1,220 KM / 758 Miles
from London.
Time Zone UTC +2 hours (Europe/Paris)
Codes IATA: BIA
ICAO: LFKB
Currency £1 equals EUR 1.15
Runways
RunwayLength (m)Surface
162519Asphalt
342519Asphalt
Radio
TypeDescriptionFrequency
AFISBASTIA INFO124.725
APPBASTIA RADAR APP123.825
ARRBASTIA APP37.85
ATISBASTIA ATIS125.925
GNDGND121.825
TWRBASTIA TWR118
Live ATC
METAR LFKB 060630Z AUTO 20004KT CAVOK 17/13 Q1026 TEMPO BKN008
TAF TAF LFKB 060200Z 0603/0703 24004KT CAVOK TX25/0612Z TN14/0604Z PROB40 TEMPO 0603/0608 BKN008 BECMG 0608/0610 03008KT PROB30 TEMPO 0617/0703 BKN008 BECMG 0619/0621 24004KT
Weather As Of 06 Oct 2022 08:59
Description Clear sky
Wind 7 km/h from South (200°)
Cloud Cover 0%
Precipitation Rain: none, Snow: none
Sunrise 07:24
Sunset 18:55
Rotations During the last 90 days there were
13 flights from LHR
13 flights to LHR


© 2017-2022 Speedbird Online